sensor_id;sensor_type;location;lat;lon;timestamp;P1;durP1;ratioP1;P2;durP2;ratioP2
8584;SDS011;7180;52.742;11.420;2023-05-10T00:00:21;10.80;;;10.10;;
8584;SDS011;7180;52.742;11.420;2023-05-10T00:02:48;11.37;;;10.67;;
8584;SDS011;7180;52.742;11.420;2023-05-10T00:05:14;11.30;;;10.60;;
8584;SDS011;7180;52.742;11.420;2023-05-10T00:07:39;11.63;;;10.73;;
8584;SDS011;7180;52.742;11.420;2023-05-10T00:10:05;11.63;;;10.73;;
8584;SDS011;7180;52.742;11.420;2023-05-10T00:12:30;11.03;;;10.10;;
8584;SDS011;7180;52.742;11.420;2023-05-10T00:14:56;11.23;;;10.50;;
8584;SDS011;7180;52.742;11.420;2023-05-10T00:17:21;11.30;;;10.50;;
8584;SDS011;7180;52.742;11.420;2023-05-10T00:19:46;11.33;;;10.60;;
8584;SDS011;7180;52.742;11.420;2023-05-10T00:22:11;11.20;;;10.40;;
8584;SDS011;7180;52.742;11.420;2023-05-10T00:24:37;10.83;;;10.13;;
8584;SDS011;7180;52.742;11.420;2023-05-10T00:27:02;11.40;;;10.63;;
8584;SDS011;7180;52.742;11.420;2023-05-10T00:29:29;11.17;;;10.27;;
8584;SDS011;7180;52.742;11.420;2023-05-10T00:31:54;11.13;;;10.33;;
8584;SDS011;7180;52.742;11.420;2023-05-10T00:34:19;11.00;;;10.30;;
8584;SDS011;7180;52.742;11.420;2023-05-10T00:36:45;10.70;;;10.00;;
8584;SDS011;7180;52.742;11.420;2023-05-10T00:39:10;11.13;;;10.33;;
8584;SDS011;7180;52.742;11.420;2023-05-10T00:41:35;10.83;;;10.10;;
8584;SDS011;7180;52.742;11.420;2023-05-10T00:44:01;11.07;;;10.30;;
8584;SDS011;7180;52.742;11.420;2023-05-10T00:46:27;10.57;;;9.87;;
8584;SDS011;7180;52.742;11.420;2023-05-10T00:48:53;10.90;;;10.20;;
8584;SDS011;7180;52.742;11.420;2023-05-10T00:51:18;11.33;;;10.47;;
8584;SDS011;7180;52.742;11.420;2023-05-10T00:53:44;11.07;;;10.23;;
8584;SDS011;7180;52.742;11.420;2023-05-10T00:56:10;11.03;;;10.23;;
8584;SDS011;7180;52.742;11.420;2023-05-10T00:58:37;11.37;;;10.57;;
8584;SDS011;7180;52.742;11.420;2023-05-10T01:01:03;10.57;;;9.87;;
8584;SDS011;7180;52.742;11.420;2023-05-10T01:03:30;11.10;;;10.30;;
8584;SDS011;7180;52.742;11.420;2023-05-10T01:05:57;10.90;;;10.30;;
8584;SDS011;7180;52.742;11.420;2023-05-10T01:08:22;11.80;;;11.00;;
8584;SDS011;7180;52.742;11.420;2023-05-10T01:10:47;11.20;;;10.40;;
8584;SDS011;7180;52.742;11.420;2023-05-10T01:13:15;11.00;;;10.30;;
8584;SDS011;7180;52.742;11.420;2023-05-10T01:15:48;10.63;;;10.03;;
8584;SDS011;7180;52.742;11.420;2023-05-10T01:18:13;11.03;;;10.23;;
8584;SDS011;7180;52.742;11.420;2023-05-10T01:20:41;11.40;;;10.70;;
8584;SDS011;7180;52.742;11.420;2023-05-10T01:23:21;11.03;;;10.23;;
8584;SDS011;7180;52.742;11.420;2023-05-10T01:26:18;11.00;;;10.20;;
8584;SDS011;7180;52.742;11.420;2023-05-10T01:34:59;11.87;;;11.07;;
8584;SDS011;7180;52.742;11.420;2023-05-10T01:37:42;11.27;;;10.57;;
8584;SDS011;7180;52.742;11.420;2023-05-10T01:40:17;12.23;;;11.23;;
8584;SDS011;7180;52.742;11.420;2023-05-10T01:42:54;11.67;;;10.87;;
8584;SDS011;7180;52.742;11.420;2023-05-10T01:45:27;11.63;;;10.83;;
8584;SDS011;7180;52.742;11.420;2023-05-10T01:48:14;11.50;;;10.60;;
8584;SDS011;7180;52.742;11.420;2023-05-10T01:50:41;11.50;;;10.57;;
8584;SDS011;7180;52.742;11.420;2023-05-10T01:53:10;11.57;;;10.57;;
8584;SDS011;7180;52.742;11.420;2023-05-10T01:55:45;11.40;;;10.60;;
8584;SDS011;7180;52.742;11.420;2023-05-10T01:58:16;11.57;;;10.73;;
8584;SDS011;7180;52.742;11.420;2023-05-10T02:00:45;11.27;;;10.57;;
8584;SDS011;7180;52.742;11.420;2023-05-10T02:03:12;11.43;;;10.63;;
8584;SDS011;7180;52.742;11.420;2023-05-10T02:05:39;11.50;;;10.80;;
8584;SDS011;7180;52.742;11.420;2023-05-10T02:08:06;11.43;;;10.63;;
8584;SDS011;7180;52.742;11.420;2023-05-10T02:10:36;11.27;;;10.47;;
8584;SDS011;7180;52.742;11.420;2023-05-10T02:13:04;11.33;;;10.53;;
8584;SDS011;7180;52.742;11.420;2023-05-10T02:15:32;11.70;;;10.93;;
8584;SDS011;7180;52.742;11.420;2023-05-10T02:17:58;11.47;;;10.67;;
8584;SDS011;7180;52.742;11.420;2023-05-10T02:20:25;11.23;;;10.53;;
8584;SDS011;7180;52.742;11.420;2023-05-10T02:22:52;11.03;;;10.33;;
8584;SDS011;7180;52.742;11.420;2023-05-10T02:25:21;11.23;;;10.43;;
8584;SDS011;7180;52.742;11.420;2023-05-10T02:27:48;11.80;;;10.80;;
8584;SDS011;7180;52.742;11.420;2023-05-10T02:30:14;11.23;;;10.43;;
8584;SDS011;7180;52.742;11.420;2023-05-10T02:32:41;11.60;;;10.80;;
8584;SDS011;7180;52.742;11.420;2023-05-10T02:35:08;11.53;;;10.73;;
8584;SDS011;7180;52.742;11.420;2023-05-10T02:37:34;11.63;;;10.70;;
8584;SDS011;7180;52.742;11.420;2023-05-10T02:40:01;12.10;;;11.13;;
8584;SDS011;7180;52.742;11.420;2023-05-10T02:42:31;11.37;;;10.67;;
8584;SDS011;7180;52.742;11.420;2023-05-10T02:45:00;11.70;;;11.00;;
8584;SDS011;7180;52.742;11.420;2023-05-10T02:47:28;11.83;;;10.93;;
8584;SDS011;7180;52.742;11.420;2023-05-10T02:49:54;11.63;;;10.93;;
8584;SDS011;7180;52.742;11.420;2023-05-10T02:52:21;11.60;;;10.80;;
8584;SDS011;7180;52.742;11.420;2023-05-10T02:54:50;11.63;;;10.83;;
8584;SDS011;7180;52.742;11.420;2023-05-10T02:57:21;11.63;;;10.90;;
8584;SDS011;7180;52.742;11.420;2023-05-10T02:59:51;11.60;;;10.80;;
8584;SDS011;7180;52.742;11.420;2023-05-10T03:02:16;11.87;;;11.07;;
8584;SDS011;7180;52.742;11.420;2023-05-10T03:04:42;12.00;;;11.20;;
8584;SDS011;7180;52.742;11.420;2023-05-10T03:07:07;12.27;;;11.23;;
8584;SDS011;7180;52.742;11.420;2023-05-10T03:09:33;12.60;;;11.70;;
8584;SDS011;7180;52.742;11.420;2023-05-10T03:12:07;12.63;;;11.83;;
8584;SDS011;7180;52.742;11.420;2023-05-10T03:17:35;12.50;;;11.50;;
8584;SDS011;7180;52.742;11.420;2023-05-10T03:20:07;12.30;;;11.43;;
8584;SDS011;7180;52.742;11.420;2023-05-10T03:22:40;12.20;;;11.40;;
8584;SDS011;7180;52.742;11.420;2023-05-10T03:25:10;11.97;;;11.17;;
8584;SDS011;7180;52.742;11.420;2023-05-10T03:27:37;12.20;;;11.40;;
8584;SDS011;7180;52.742;11.420;2023-05-10T03:30:05;12.00;;;11.30;;
8584;SDS011;7180;52.742;11.420;2023-05-10T03:32:32;12.20;;;11.40;;
8584;SDS011;7180;52.742;11.420;2023-05-10T03:34:59;12.00;;;11.20;;
8584;SDS011;7180;52.742;11.420;2023-05-10T03:37:24;11.93;;;11.13;;
8584;SDS011;7180;52.742;11.420;2023-05-10T03:39:50;11.73;;;10.80;;
8584;SDS011;7180;52.742;11.420;2023-05-10T03:42:15;11.87;;;11.07;;
8584;SDS011;7180;52.742;11.420;2023-05-10T03:44:42;11.60;;;10.80;;
8584;SDS011;7180;52.742;11.420;2023-05-10T03:47:07;11.93;;;11.13;;
8584;SDS011;7180;52.742;11.420;2023-05-10T03:49:33;11.90;;;10.90;;
8584;SDS011;7180;52.742;11.420;2023-05-10T03:51:58;11.37;;;10.67;;
8584;SDS011;7180;52.742;11.420;2023-05-10T03:54:23;11.10;;;10.40;;
8584;SDS011;7180;52.742;11.420;2023-05-10T03:56:48;11.40;;;10.60;;
8584;SDS011;7180;52.742;11.420;2023-05-10T03:59:14;12.63;;;11.63;;
8584;SDS011;7180;52.742;11.420;2023-05-10T04:01:40;11.60;;;10.90;;
8584;SDS011;7180;52.742;11.420;2023-05-10T04:04:05;12.47;;;11.57;;
8584;SDS011;7180;52.742;11.420;2023-05-10T04:06:30;12.20;;;11.40;;
8584;SDS011;7180;52.742;11.420;2023-05-10T04:08:55;12.03;;;11.23;;
8584;SDS011;7180;52.742;11.420;2023-05-10T04:11:21;11.73;;;10.93;;
8584;SDS011;7180;52.742;11.420;2023-05-10T04:13:47;12.10;;;11.30;;
8584;SDS011;7180;52.742;11.420;2023-05-10T04:16:12;11.90;;;11.20;;
8584;SDS011;7180;52.742;11.420;2023-05-10T04:18:37;11.00;;;10.20;;
8584;SDS011;7180;52.742;11.420;2023-05-10T04:21:02;11.50;;;10.60;;
8584;SDS011;7180;52.742;11.420;2023-05-10T04:23:28;11.03;;;10.23;;
8584;SDS011;7180;52.742;11.420;2023-05-10T04:25:59;10.90;;;10.20;;
8584;SDS011;7180;52.742;11.420;2023-05-10T04:28:25;11.47;;;10.57;;
8584;SDS011;7180;52.742;11.420;2023-05-10T04:30:50;11.10;;;10.30;;
8584;SDS011;7180;52.742;11.420;2023-05-10T04:33:16;11.10;;;10.40;;
8584;SDS011;7180;52.742;11.420;2023-05-10T04:35:41;10.73;;;9.93;;
8584;SDS011;7180;52.742;11.420;2023-05-10T04:38:06;10.37;;;9.77;;
8584;SDS011;7180;52.742;11.420;2023-05-10T04:40:31;10.50;;;9.87;;
8584;SDS011;7180;52.742;11.420;2023-05-10T04:42:57;11.53;;;10.60;;
8584;SDS011;7180;52.742;11.420;2023-05-10T04:45:22;11.30;;;10.60;;
8584;SDS011;7180;52.742;11.420;2023-05-10T04:47:47;11.20;;;10.40;;
8584;SDS011;7180;52.742;11.420;2023-05-10T04:50:13;11.27;;;10.40;;
8584;SDS011;7180;52.742;11.420;2023-05-10T04:52:38;11.20;;;10.40;;
8584;SDS011;7180;52.742;11.420;2023-05-10T04:55:03;11.23;;;10.53;;
8584;SDS011;7180;52.742;11.420;2023-05-10T04:57:29;11.60;;;10.90;;
8584;SDS011;7180;52.742;11.420;2023-05-10T04:59:54;11.90;;;11.10;;
8584;SDS011;7180;52.742;11.420;2023-05-10T05:02:20;11.90;;;11.20;;
8584;SDS011;7180;52.742;11.420;2023-05-10T05:04:45;11.20;;;10.50;;
8584;SDS011;7180;52.742;11.420;2023-05-10T05:07:11;11.40;;;10.60;;
8584;SDS011;7180;52.742;11.420;2023-05-10T05:09:36;10.83;;;10.17;;
8584;SDS011;7180;52.742;11.420;2023-05-10T05:12:01;10.77;;;10.17;;
8584;SDS011;7180;52.742;11.420;2023-05-10T05:14:26;10.53;;;9.93;;
8584;SDS011;7180;52.742;11.420;2023-05-10T05:16:52;11.17;;;10.43;;
8584;SDS011;7180;52.742;11.420;2023-05-10T05:19:17;11.87;;;10.70;;
8584;SDS011;7180;52.742;11.420;2023-05-10T05:21:43;10.87;;;10.07;;
8584;SDS011;7180;52.742;11.420;2023-05-10T05:24:08;11.20;;;10.47;;
8584;SDS011;7180;52.742;11.420;2023-05-10T05:26:34;11.03;;;10.33;;
8584;SDS011;7180;52.742;11.420;2023-05-10T05:29:00;11.23;;;10.47;;
8584;SDS011;7180;52.742;11.420;2023-05-10T05:31:25;11.27;;;10.47;;
8584;SDS011;7180;52.742;11.420;2023-05-10T05:33:50;11.73;;;10.93;;
8584;SDS011;7180;52.742;11.420;2023-05-10T05:36:16;11.33;;;10.53;;
8584;SDS011;7180;52.742;11.420;2023-05-10T05:38:41;11.30;;;10.50;;
8584;SDS011;7180;52.742;11.420;2023-05-10T05:41:06;10.27;;;9.47;;
8584;SDS011;7180;52.742;11.420;2023-05-10T05:43:32;10.50;;;9.67;;
8584;SDS011;7180;52.742;11.420;2023-05-10T05:45:57;10.20;;;9.60;;
8584;SDS011;7180;52.742;11.420;2023-05-10T05:48:22;10.40;;;9.40;;
8584;SDS011;7180;52.742;11.420;2023-05-10T05:50:48;10.23;;;9.63;;
8584;SDS011;7180;52.742;11.420;2023-05-10T05:53:13;10.37;;;9.67;;
8584;SDS011;7180;52.742;11.420;2023-05-10T05:55:39;10.13;;;9.33;;
8584;SDS011;7180;52.742;11.420;2023-05-10T05:58:04;10.63;;;9.83;;
8584;SDS011;7180;52.742;11.420;2023-05-10T06:00:29;10.87;;;9.93;;
8584;SDS011;7180;52.742;11.420;2023-05-10T06:02:54;10.00;;;9.30;;
8584;SDS011;7180;52.742;11.420;2023-05-10T06:05:20;10.63;;;9.97;;
8584;SDS011;7180;52.742;11.420;2023-05-10T06:07:45;10.03;;;9.40;;
8584;SDS011;7180;52.742;11.420;2023-05-10T06:10:11;10.47;;;9.87;;
8584;SDS011;7180;52.742;11.420;2023-05-10T06:12:36;10.43;;;9.80;;
8584;SDS011;7180;52.742;11.420;2023-05-10T06:15:02;10.47;;;9.77;;
8584;SDS011;7180;52.742;11.420;2023-05-10T06:17:27;10.17;;;9.57;;
8584;SDS011;7180;52.742;11.420;2023-05-10T06:19:53;10.53;;;9.90;;
8584;SDS011;7180;52.742;11.420;2023-05-10T06:22:18;10.80;;;9.80;;
8584;SDS011;7180;52.742;11.420;2023-05-10T06:24:50;10.50;;;9.80;;
8584;SDS011;7180;52.742;11.420;2023-05-10T06:27:16;10.10;;;9.37;;
8584;SDS011;7180;52.742;11.420;2023-05-10T06:29:41;10.77;;;9.97;;
8584;SDS011;7180;52.742;11.420;2023-05-10T06:32:06;10.23;;;9.63;;
8584;SDS011;7180;52.742;11.420;2023-05-10T06:34:32;10.77;;;10.00;;
8584;SDS011;7180;52.742;11.420;2023-05-10T06:36:57;10.47;;;9.87;;
8584;SDS011;7180;52.742;11.420;2023-05-10T06:39:22;11.07;;;10.27;;
8584;SDS011;7180;52.742;11.420;2023-05-10T06:41:47;10.10;;;9.60;;
8584;SDS011;7180;52.742;11.420;2023-05-10T06:44:13;10.43;;;9.73;;
8584;SDS011;7180;52.742;11.420;2023-05-10T06:46:38;10.70;;;10.10;;
8584;SDS011;7180;52.742;11.420;2023-05-10T06:49:03;10.50;;;9.80;;
8584;SDS011;7180;52.742;11.420;2023-05-10T06:51:29;10.10;;;9.60;;
8584;SDS011;7180;52.742;11.420;2023-05-10T06:53:54;10.53;;;9.60;;
8584;SDS011;7180;52.742;11.420;2023-05-10T06:56:20;10.63;;;9.93;;
8584;SDS011;7180;52.742;11.420;2023-05-10T06:58:46;9.70;;;9.13;;
8584;SDS011;7180;52.742;11.420;2023-05-10T07:01:11;9.50;;;8.90;;
8584;SDS011;7180;52.742;11.420;2023-05-10T07:03:37;9.77;;;9.17;;
8584;SDS011;7180;52.742;11.420;2023-05-10T07:06:02;9.60;;;9.00;;
8584;SDS011;7180;52.742;11.420;2023-05-10T07:08:29;10.27;;;9.43;;
8584;SDS011;7180;52.742;11.420;2023-05-10T07:11:01;10.23;;;9.43;;
8584;SDS011;7180;52.742;11.420;2023-05-10T07:13:31;10.77;;;10.00;;
8584;SDS011;7180;52.742;11.420;2023-05-10T07:15:57;10.10;;;9.57;;
8584;SDS011;7180;52.742;11.420;2023-05-10T07:18:25;10.90;;;10.20;;
8584;SDS011;7180;52.742;11.420;2023-05-10T07:20:50;9.90;;;9.30;;
8584;SDS011;7180;52.742;11.420;2023-05-10T07:23:16;10.30;;;9.70;;
8584;SDS011;7180;52.742;11.420;2023-05-10T07:25:44;10.43;;;9.70;;
8584;SDS011;7180;52.742;11.420;2023-05-10T07:28:10;10.57;;;9.87;;
8584;SDS011;7180;52.742;11.420;2023-05-10T07:30:36;10.37;;;9.87;;
8584;SDS011;7180;52.742;11.420;2023-05-10T07:33:01;10.17;;;9.47;;
8584;SDS011;7180;52.742;11.420;2023-05-10T07:35:26;10.43;;;9.73;;
8584;SDS011;7180;52.742;11.420;2023-05-10T07:37:52;10.30;;;9.70;;
8584;SDS011;7180;52.742;11.420;2023-05-10T07:40:17;9.90;;;9.37;;
8584;SDS011;7180;52.742;11.420;2023-05-10T07:42:42;10.50;;;9.80;;
8584;SDS011;7180;52.742;11.420;2023-05-10T07:45:08;9.80;;;9.20;;
8584;SDS011;7180;52.742;11.420;2023-05-10T07:47:33;9.73;;;9.03;;
8584;SDS011;7180;52.742;11.420;2023-05-10T07:49:59;9.47;;;8.67;;
8584;SDS011;7180;52.742;11.420;2023-05-10T07:52:24;9.50;;;8.90;;
8584;SDS011;7180;52.742;11.420;2023-05-10T07:54:49;10.10;;;9.50;;
8584;SDS011;7180;52.742;11.420;2023-05-10T07:57:15;10.40;;;9.60;;
8584;SDS011;7180;52.742;11.420;2023-05-10T07:59:42;9.53;;;8.93;;
8584;SDS011;7180;52.742;11.420;2023-05-10T08:02:07;9.37;;;8.70;;
8584;SDS011;7180;52.742;11.420;2023-05-10T08:04:33;9.57;;;9.00;;
8584;SDS011;7180;52.742;11.420;2023-05-10T08:06:58;9.07;;;8.47;;
8584;SDS011;7180;52.742;11.420;2023-05-10T08:09:23;10.03;;;9.30;;
8584;SDS011;7180;52.742;11.420;2023-05-10T08:11:49;10.10;;;9.40;;
8584;SDS011;7180;52.742;11.420;2023-05-10T08:14:15;10.23;;;9.50;;
8584;SDS011;7180;52.742;11.420;2023-05-10T08:16:41;9.80;;;8.90;;
8584;SDS011;7180;52.742;11.420;2023-05-10T08:19:06;9.30;;;8.80;;
8584;SDS011;7180;52.742;11.420;2023-05-10T08:21:31;9.50;;;8.80;;
8584;SDS011;7180;52.742;11.420;2023-05-10T08:23:56;9.70;;;9.10;;
8584;SDS011;7180;52.742;11.420;2023-05-10T08:26:22;9.60;;;8.80;;
8584;SDS011;7180;52.742;11.420;2023-05-10T08:28:48;9.63;;;9.03;;
8584;SDS011;7180;52.742;11.420;2023-05-10T08:31:13;9.67;;;9.13;;
8584;SDS011;7180;52.742;11.420;2023-05-10T08:33:38;9.70;;;9.00;;
8584;SDS011;7180;52.742;11.420;2023-05-10T08:36:03;9.83;;;9.00;;
8584;SDS011;7180;52.742;11.420;2023-05-10T08:38:29;9.63;;;9.03;;
8584;SDS011;7180;52.742;11.420;2023-05-10T08:40:54;9.83;;;9.17;;
8584;SDS011;7180;52.742;11.420;2023-05-10T08:43:21;9.40;;;8.73;;
8584;SDS011;7180;52.742;11.420;2023-05-10T08:45:51;10.07;;;9.47;;
8584;SDS011;7180;52.742;11.420;2023-05-10T08:48:19;10.10;;;9.30;;
8584;SDS011;7180;52.742;11.420;2023-05-10T08:50:46;10.20;;;9.50;;
8584;SDS011;7180;52.742;11.420;2023-05-10T08:53:13;9.80;;;9.10;;
8584;SDS011;7180;52.742;11.420;2023-05-10T08:55:41;10.20;;;9.60;;
8584;SDS011;7180;52.742;11.420;2023-05-10T08:58:08;9.90;;;9.20;;
8584;SDS011;7180;52.742;11.420;2023-05-10T09:00:34;9.93;;;9.20;;
8584;SDS011;7180;52.742;11.420;2023-05-10T09:03:02;10.60;;;9.83;;
8584;SDS011;7180;52.742;11.420;2023-05-10T09:05:28;10.40;;;9.60;;
8584;SDS011;7180;52.742;11.420;2023-05-10T09:07:53;10.07;;;9.47;;
8584;SDS011;7180;52.742;11.420;2023-05-10T09:10:19;10.60;;;9.90;;
8584;SDS011;7180;52.742;11.420;2023-05-10T09:12:45;10.97;;;10.20;;
8584;SDS011;7180;52.742;11.420;2023-05-10T09:15:11;10.57;;;9.80;;
8584;SDS011;7180;52.742;11.420;2023-05-10T09:17:40;11.00;;;10.10;;
8584;SDS011;7180;52.742;11.420;2023-05-10T09:20:06;10.00;;;9.13;;
8584;SDS011;7180;52.742;11.420;2023-05-10T09:22:32;10.80;;;9.90;;
8584;SDS011;7180;52.742;11.420;2023-05-10T09:27:34;9.83;;;9.30;;
8584;SDS011;7180;52.742;11.420;2023-05-10T09:30:00;9.97;;;9.47;;
8584;SDS011;7180;52.742;11.420;2023-05-10T09:32:45;10.20;;;9.60;;
8584;SDS011;7180;52.742;11.420;2023-05-10T09:35:16;10.17;;;9.47;;
8584;SDS011;7180;52.742;11.420;2023-05-10T09:37:47;10.50;;;9.67;;
8584;SDS011;7180;52.742;11.420;2023-05-10T09:40:18;10.10;;;9.40;;
8584;SDS011;7180;52.742;11.420;2023-05-10T09:43:01;9.87;;;9.27;;
8584;SDS011;7180;52.742;11.420;2023-05-10T09:45:33;10.37;;;9.77;;
8584;SDS011;7180;52.742;11.420;2023-05-10T09:48:00;10.10;;;9.40;;
8584;SDS011;7180;52.742;11.420;2023-05-10T09:50:27;9.70;;;9.10;;
8584;SDS011;7180;52.742;11.420;2023-05-10T09:52:57;9.63;;;9.00;;
8584;SDS011;7180;52.742;11.420;2023-05-10T09:55:45;9.70;;;9.10;;
8584;SDS011;7180;52.742;11.420;2023-05-10T09:58:10;10.03;;;9.10;;
8584;SDS011;7180;52.742;11.420;2023-05-10T10:00:37;9.63;;;8.97;;
8584;SDS011;7180;52.742;11.420;2023-05-10T10:03:04;10.03;;;9.40;;
8584;SDS011;7180;52.742;11.420;2023-05-10T10:05:31;9.63;;;9.07;;
8584;SDS011;7180;52.742;11.420;2023-05-10T10:07:58;10.17;;;9.47;;
8584;SDS011;7180;52.742;11.420;2023-05-10T10:10:26;11.37;;;10.57;;
8584;SDS011;7180;52.742;11.420;2023-05-10T10:12:52;11.30;;;10.70;;
8584;SDS011;7180;52.742;11.420;2023-05-10T10:15:20;9.97;;;9.37;;
8584;SDS011;7180;52.742;11.420;2023-05-10T10:17:45;9.93;;;9.23;;
8584;SDS011;7180;52.742;11.420;2023-05-10T10:20:11;10.03;;;9.43;;
8584;SDS011;7180;52.742;11.420;2023-05-10T10:22:37;10.40;;;9.67;;
8584;SDS011;7180;52.742;11.420;2023-05-10T10:25:03;10.33;;;9.63;;
8584;SDS011;7180;52.742;11.420;2023-05-10T10:27:36;10.40;;;9.53;;
8584;SDS011;7180;52.742;11.420;2023-05-10T10:35:58;10.67;;;10.03;;
8584;SDS011;7180;52.742;11.420;2023-05-10T10:38:35;11.27;;;10.57;;
8584;SDS011;7180;52.742;11.420;2023-05-10T10:41:03;10.93;;;10.23;;
8584;SDS011;7180;52.742;11.420;2023-05-10T10:43:34;10.20;;;9.60;;
8584;SDS011;7180;52.742;11.420;2023-05-10T10:46:09;10.70;;;10.10;;
8584;SDS011;7180;52.742;11.420;2023-05-10T10:48:39;11.77;;;10.97;;
8584;SDS011;7180;52.742;11.420;2023-05-10T10:51:07;10.90;;;10.00;;
8584;SDS011;7180;52.742;11.420;2023-05-10T10:53:32;10.27;;;9.57;;
8584;SDS011;7180;52.742;11.420;2023-05-10T10:56:04;10.60;;;9.90;;
8584;SDS011;7180;52.742;11.420;2023-05-10T10:58:32;9.90;;;9.20;;
8584;SDS011;7180;52.742;11.420;2023-05-10T11:01:11;10.30;;;9.57;;
8584;SDS011;7180;52.742;11.420;2023-05-10T11:03:41;11.47;;;10.60;;
8584;SDS011;7180;52.742;11.420;2023-05-10T11:06:39;10.60;;;9.93;;
8584;SDS011;7180;52.742;11.420;2023-05-10T11:09:06;11.57;;;10.67;;
8584;SDS011;7180;52.742;11.420;2023-05-10T11:11:32;11.87;;;11.17;;
8584;SDS011;7180;52.742;11.420;2023-05-10T11:14:02;11.73;;;10.53;;
8584;SDS011;7180;52.742;11.420;2023-05-10T11:16:28;11.30;;;10.53;;
8584;SDS011;7180;52.742;11.420;2023-05-10T11:19:07;11.30;;;10.33;;
8584;SDS011;7180;52.742;11.420;2023-05-10T11:21:44;11.77;;;10.83;;
8584;SDS011;7180;52.742;11.420;2023-05-10T11:24:14;11.00;;;10.30;;
8584;SDS011;7180;52.742;11.420;2023-05-10T11:26:41;11.50;;;10.53;;
8584;SDS011;7180;52.742;11.420;2023-05-10T11:29:07;11.40;;;10.40;;
8584;SDS011;7180;52.742;11.420;2023-05-10T11:31:32;10.27;;;9.57;;
8584;SDS011;7180;52.742;11.420;2023-05-10T11:33:58;10.60;;;9.80;;
8584;SDS011;7180;52.742;11.420;2023-05-10T11:36:26;11.27;;;10.37;;
8584;SDS011;7180;52.742;11.420;2023-05-10T11:38:53;11.80;;;11.10;;
8584;SDS011;7180;52.742;11.420;2023-05-10T11:41:20;12.30;;;11.47;;
8584;SDS011;7180;52.742;11.420;2023-05-10T11:43:47;11.97;;;11.17;;
8584;SDS011;7180;52.742;11.420;2023-05-10T11:46:15;11.80;;;10.73;;
8584;SDS011;7180;52.742;11.420;2023-05-10T11:48:41;12.80;;;11.90;;
8584;SDS011;7180;52.742;11.420;2023-05-10T11:51:08;12.40;;;11.63;;
8584;SDS011;7180;52.742;11.420;2023-05-10T11:53:34;12.30;;;11.30;;
8584;SDS011;7180;52.742;11.420;2023-05-10T11:56:09;11.97;;;11.20;;
8584;SDS011;7180;52.742;11.420;2023-05-10T11:58:35;12.30;;;11.37;;
8584;SDS011;7180;52.742;11.420;2023-05-10T12:01:03;13.07;;;12.10;;
8584;SDS011;7180;52.742;11.420;2023-05-10T12:03:30;12.93;;;12.13;;
8584;SDS011;7180;52.742;11.420;2023-05-10T12:05:56;12.93;;;12.03;;
8584;SDS011;7180;52.742;11.420;2023-05-10T12:08:23;13.50;;;12.50;;
8584;SDS011;7180;52.742;11.420;2023-05-10T12:10:49;11.97;;;11.17;;
8584;SDS011;7180;52.742;11.420;2023-05-10T12:13:15;12.60;;;11.63;;
8584;SDS011;7180;52.742;11.420;2023-05-10T12:15:40;13.13;;;12.23;;
8584;SDS011;7180;52.742;11.420;2023-05-10T12:18:10;12.10;;;11.10;;
8584;SDS011;7180;52.742;11.420;2023-05-10T12:20:37;13.00;;;11.90;;
8584;SDS011;7180;52.742;11.420;2023-05-10T12:23:02;12.80;;;11.90;;
8584;SDS011;7180;52.742;11.420;2023-05-10T12:25:35;12.33;;;11.43;;
8584;SDS011;7180;52.742;11.420;2023-05-10T12:28:05;13.47;;;12.57;;
8584;SDS011;7180;52.742;11.420;2023-05-10T12:30:33;13.67;;;12.60;;
8584;SDS011;7180;52.742;11.420;2023-05-10T12:33:10;13.47;;;12.43;;
8584;SDS011;7180;52.742;11.420;2023-05-10T12:35:43;13.47;;;12.40;;
8584;SDS011;7180;52.742;11.420;2023-05-10T12:41:00;14.03;;;13.03;;
8584;SDS011;7180;52.742;11.420;2023-05-10T12:43:29;14.00;;;13.00;;
8584;SDS011;7180;52.742;11.420;2023-05-10T12:45:55;13.70;;;12.60;;
8584;SDS011;7180;52.742;11.420;2023-05-10T12:48:20;14.17;;;13.10;;
8584;SDS011;7180;52.742;11.420;2023-05-10T12:50:46;14.07;;;12.87;;
8584;SDS011;7180;52.742;11.420;2023-05-10T12:53:13;14.00;;;13.00;;
8584;SDS011;7180;52.742;11.420;2023-05-10T12:55:40;13.77;;;12.73;;
8584;SDS011;7180;52.742;11.420;2023-05-10T12:58:05;14.90;;;13.80;;
8584;SDS011;7180;52.742;11.420;2023-05-10T13:00:31;13.57;;;12.67;;
8584;SDS011;7180;52.742;11.420;2023-05-10T13:02:56;12.60;;;11.80;;
8584;SDS011;7180;52.742;11.420;2023-05-10T13:05:21;14.47;;;13.00;;
8584;SDS011;7180;52.742;11.420;2023-05-10T13:07:46;13.77;;;12.87;;
8584;SDS011;7180;52.742;11.420;2023-05-10T13:10:12;15.00;;;13.90;;
8584;SDS011;7180;52.742;11.420;2023-05-10T13:12:37;15.00;;;13.90;;
8584;SDS011;7180;52.742;11.420;2023-05-10T13:15:02;15.93;;;14.60;;
8584;SDS011;7180;52.742;11.420;2023-05-10T13:17:28;12.00;;;11.10;;
8584;SDS011;7180;52.742;11.420;2023-05-10T13:19:54;10.20;;;9.60;;
8584;SDS011;7180;52.742;11.420;2023-05-10T13:22:19;9.10;;;8.50;;
8584;SDS011;7180;52.742;11.420;2023-05-10T13:24:44;9.47;;;8.73;;
8584;SDS011;7180;52.742;11.420;2023-05-10T13:27:10;8.93;;;8.43;;
8584;SDS011;7180;52.742;11.420;2023-05-10T13:29:35;9.13;;;8.63;;
8584;SDS011;7180;52.742;11.420;2023-05-10T13:32:00;8.87;;;8.47;;
8584;SDS011;7180;52.742;11.420;2023-05-10T13:34:26;8.87;;;8.37;;
8584;SDS011;7180;52.742;11.420;2023-05-10T13:36:51;9.20;;;8.70;;
8584;SDS011;7180;52.742;11.420;2023-05-10T13:39:17;9.70;;;9.20;;
8584;SDS011;7180;52.742;11.420;2023-05-10T13:41:43;10.10;;;9.50;;
8584;SDS011;7180;52.742;11.420;2023-05-10T13:44:08;9.40;;;8.90;;
8584;SDS011;7180;52.742;11.420;2023-05-10T13:46:33;9.67;;;9.07;;
8584;SDS011;7180;52.742;11.420;2023-05-10T13:48:59;9.20;;;8.70;;
8584;SDS011;7180;52.742;11.420;2023-05-10T13:51:24;8.70;;;8.30;;
8584;SDS011;7180;52.742;11.420;2023-05-10T13:53:49;7.97;;;7.57;;
8584;SDS011;7180;52.742;11.420;2023-05-10T13:56:15;7.67;;;7.27;;
8584;SDS011;7180;52.742;11.420;2023-05-10T13:58:40;7.20;;;6.90;;
8584;SDS011;7180;52.742;11.420;2023-05-10T14:01:06;7.50;;;7.20;;
8584;SDS011;7180;52.742;11.420;2023-05-10T14:03:31;7.50;;;7.20;;
8584;SDS011;7180;52.742;11.420;2023-05-10T14:05:57;7.70;;;7.20;;
8584;SDS011;7180;52.742;11.420;2023-05-10T14:08:23;7.43;;;7.03;;
8584;SDS011;7180;52.742;11.420;2023-05-10T14:10:48;7.60;;;7.20;;
8584;SDS011;7180;52.742;11.420;2023-05-10T14:13:14;8.03;;;7.60;;
8584;SDS011;7180;52.742;11.420;2023-05-10T14:15:40;9.07;;;8.67;;
8584;SDS011;7180;52.742;11.420;2023-05-10T14:18:05;9.77;;;9.27;;
8584;SDS011;7180;52.742;11.420;2023-05-10T14:20:30;9.77;;;9.23;;
8584;SDS011;7180;52.742;11.420;2023-05-10T14:22:57;9.93;;;9.43;;
8584;SDS011;7180;52.742;11.420;2023-05-10T14:25:22;10.73;;;10.17;;
8584;SDS011;7180;52.742;11.420;2023-05-10T14:27:48;10.57;;;9.97;;
8584;SDS011;7180;52.742;11.420;2023-05-10T14:30:13;10.60;;;10.00;;
8584;SDS011;7180;52.742;11.420;2023-05-10T14:32:39;10.57;;;10.07;;
8584;SDS011;7180;52.742;11.420;2023-05-10T14:35:05;10.83;;;10.23;;
8584;SDS011;7180;52.742;11.420;2023-05-10T14:37:31;10.67;;;10.10;;
8584;SDS011;7180;52.742;11.420;2023-05-10T14:39:56;10.50;;;9.90;;
8584;SDS011;7180;52.742;11.420;2023-05-10T14:42:21;9.97;;;9.40;;
8584;SDS011;7180;52.742;11.420;2023-05-10T14:44:46;10.87;;;10.27;;
8584;SDS011;7180;52.742;11.420;2023-05-10T14:47:12;10.80;;;10.20;;
8584;SDS011;7180;52.742;11.420;2023-05-10T14:49:37;10.70;;;10.10;;
8584;SDS011;7180;52.742;11.420;2023-05-10T14:52:02;11.10;;;10.43;;
8584;SDS011;7180;52.742;11.420;2023-05-10T14:54:28;11.20;;;10.50;;
8584;SDS011;7180;52.742;11.420;2023-05-10T14:56:53;10.80;;;10.20;;
8584;SDS011;7180;52.742;11.420;2023-05-10T14:59:18;10.20;;;9.70;;
8584;SDS011;7180;52.742;11.420;2023-05-10T15:01:45;10.30;;;9.80;;